Terminal Aerodrome Forecast
Issued by NWS Charleston, WV

Current Version | Previous Version | Graphics & Text | Print | Product List | Glossary On
Versions: 1 2 3 4 5 6 7 8 9 10 11 12 13 14 15 16 17 18 19 20 21 22 23 24 25 26 27 28
000
FTUS41 KRLX 252300 RRA
TAFEKN
TAF
KEKN 252343Z 2600/2624 02004KT 5SM -SHRA BR OVC020
     FM260600 02005KT P6SM OVC025
     FM261500 36009KT P6SM BKN035
     FM261900 34010G16KT P6SM SCT040=

USA.gov is the U.S. government's official web portal to all federal, state and local government web resources and services.